Time;durP1;ratioP1;P1;durP2;ratioP2;P2;SDS_P1;SDS_P2;PMS_P1;PMS_P2;Temp;Humidity;BMP_temperature;BMP_pressure;BME280_temperature;BME280_humidity;BME280_pressure;Samples;Min_cycle;Max_cycle;Signal;HPM_P1;HPM_P2
2023/06/05 00:00:31;;;;;;;6.90;1.77;;;;;;;;;;5009908;28;20026;-78
2023/06/05 00:02:56;;;;;;;2.90;1.70;;;;;;;;;;5011080;28;20590;-78
2023/06/05 00:05:25;;;;;;;2.70;1.83;;;;;;;;;;5012504;28;20034;-78
2023/06/05 00:07:51;;;;;;;2.78;1.80;;;;;;;;;;5014071;28;20092;-78
2023/06/05 00:10:16;;;;;;;2.72;1.80;;;;;;;;;;5018060;28;20041;-78
2023/06/05 00:12:42;;;;;;;7.20;1.80;;;;;;;;;;5013604;28;20022;-78
2023/06/05 00:15:08;;;;;;;3.88;1.52;;;;;;;;;;5018577;28;20990;-78
2023/06/05 00:17:33;;;;;;;4.20;1.90;;;;;;;;;;5008256;28;20034;-79
2023/06/05 00:20:00;;;;;;;5.30;1.65;;;;;;;;;;5014391;28;20029;-80
2023/06/05 00:22:30;;;;;;;2.47;1.50;;;;;;;;;;5014221;28;20022;-78
2023/06/05 00:24:56;;;;;;;4.10;2.00;;;;;;;;;;5014892;28;20109;-79
2023/06/05 00:27:21;;;;;;;4.50;1.92;;;;;;;;;;5007777;28;20152;-79
2023/06/05 00:29:47;;;;;;;2.47;1.55;;;;;;;;;;5020558;28;20056;-79
2023/06/05 00:32:12;;;;;;;3.55;2.13;;;;;;;;;;5014168;28;20522;-79
2023/06/05 00:34:37;;;;;;;6.95;1.98;;;;;;;;;;5007247;28;20038;-80
2023/06/05 00:37:03;;;;;;;2.88;1.48;;;;;;;;;;5022764;28;20032;-78
2023/06/05 00:39:28;;;;;;;2.47;1.70;;;;;;;;;;5021550;28;20037;-79
2023/06/05 00:41:54;;;;;;;4.10;1.77;;;;;;;;;;5007826;28;20369;-79
2023/06/05 00:44:20;;;;;;;2.47;1.70;;;;;;;;;;5014214;28;20117;-78
2023/06/05 00:46:48;;;;;;;2.88;1.83;;;;;;;;;;5017408;28;20649;-79
2023/06/05 00:49:15;;;;;;;1.80;1.60;;;;;;;;;;5014540;28;20571;-78
2023/06/05 00:51:42;;;;;;;3.72;2.08;;;;;;;;;;5009026;28;20037;-79
2023/06/05 00:54:08;;;;;;;1.90;1.70;;;;;;;;;;5015591;28;20049;-79
2023/06/05 00:56:35;;;;;;;3.00;1.90;;;;;;;;;;5018003;28;20037;-79
2023/06/05 00:59:01;;;;;;;2.53;1.85;;;;;;;;;;5016440;28;20031;-79
2023/06/05 01:01:28;;;;;;;3.38;1.52;;;;;;;;;;5017056;28;20104;-79
2023/06/05 01:03:57;;;;;;;5.45;2.13;;;;;;;;;;5014623;28;20107;-78
2023/06/05 01:06:26;;;;;;;3.33;1.75;;;;;;;;;;5016652;28;20024;-79
2023/06/05 01:08:53;;;;;;;4.13;2.00;;;;;;;;;;5015433;28;20087;-79
2023/06/05 01:11:44;;;;;;;6.35;1.90;;;;;;;;;;5013466;28;20022;-78
2023/06/05 01:14:27;;;;;;;3.13;1.63;;;;;;;;;;5015126;28;20026;-79
2023/06/05 01:16:53;;;;;;;2.00;1.73;;;;;;;;;;5016920;28;20022;-79
2023/06/05 01:19:20;;;;;;;7.18;1.88;;;;;;;;;;5016851;28;20372;-78
2023/06/05 01:21:49;;;;;;;4.07;1.67;;;;;;;;;;5011525;28;20034;-78
2023/06/05 01:24:15;;;;;;;2.50;1.40;;;;;;;;;;5012064;28;20069;-79
2023/06/05 01:27:15;;;;;;;5.68;1.95;;;;;;;;;;5020810;28;20017;-78
2023/06/05 01:29:56;;;;;;;7.03;1.70;;;;;;;;;;5006690;28;20496;-79
2023/06/05 01:32:53;;;;;;;2.10;1.70;;;;;;;;;;5009750;28;20391;-79
2023/06/05 01:35:20;;;;;;;2.95;1.95;;;;;;;;;;5006760;28;20034;-79
2023/06/05 01:37:48;;;;;;;3.33;1.70;;;;;;;;;;4991493;28;20028;-78
2023/06/05 01:40:22;;;;;;;2.97;1.65;;;;;;;;;;5004328;28;20038;-79
2023/06/05 01:42:49;;;;;;;2.75;1.73;;;;;;;;;;5006862;28;20026;-78
2023/06/05 01:45:16;;;;;;;2.65;1.70;;;;;;;;;;5011743;28;20052;-79
2023/06/05 01:47:42;;;;;;;3.05;1.63;;;;;;;;;;5010075;28;20030;-79
2023/06/05 01:50:08;;;;;;;2.42;1.83;;;;;;;;;;5007439;28;20033;-79
2023/06/05 01:52:39;;;;;;;2.40;1.63;;;;;;;;;;5017337;28;20550;-78
2023/06/05 01:55:06;;;;;;;2.00;1.80;;;;;;;;;;5005166;28;20026;-78
2023/06/05 01:57:33;;;;;;;2.00;1.80;;;;;;;;;;5016474;28;20049;-79
2023/06/05 02:00:01;;;;;;;1.95;1.40;;;;;;;;;;5022882;28;20025;-79
2023/06/05 02:02:28;;;;;;;2.25;1.40;;;;;;;;;;5015773;28;20105;-79
2023/06/05 02:04:54;;;;;;;2.50;1.50;;;;;;;;;;5019305;28;20026;-79
2023/06/05 02:07:21;;;;;;;2.30;1.70;;;;;;;;;;5015242;28;20075;-79
2023/06/05 02:09:46;;;;;;;2.63;1.48;;;;;;;;;;5007754;28;20030;-79
2023/06/05 02:12:14;;;;;;;2.28;1.65;;;;;;;;;;5026903;28;20037;-79
2023/06/05 02:14:44;;;;;;;3.03;1.92;;;;;;;;;;5017125;28;20038;-79
2023/06/05 02:17:13;;;;;;;2.80;1.80;;;;;;;;;;5015004;28;20021;-79
2023/06/05 02:19:39;;;;;;;2.05;1.60;;;;;;;;;;5018710;28;20030;-78
2023/06/05 02:22:05;;;;;;;1.67;1.40;;;;;;;;;;5007131;28;20077;-79
2023/06/05 02:24:30;;;;;;;2.53;1.60;;;;;;;;;;5015088;28;20423;-79
2023/06/05 02:26:56;;;;;;;2.63;1.60;;;;;;;;;;5014231;28;20494;-79
2023/06/05 02:29:22;;;;;;;5.90;1.80;;;;;;;;;;5010670;28;20053;-78
2023/06/05 02:31:47;;;;;;;3.83;1.73;;;;;;;;;;5010240;28;20025;-78
2023/06/05 02:34:13;;;;;;;2.30;1.48;;;;;;;;;;5005060;28;20572;-79
2023/06/05 02:36:38;;;;;;;3.13;1.90;;;;;;;;;;5010743;28;20030;-78
2023/06/05 02:39:04;;;;;;;4.10;1.52;;;;;;;;;;5016083;28;20030;-78
2023/06/05 02:41:30;;;;;;;2.22;1.77;;;;;;;;;;5015537;28;20402;-79
2023/06/05 02:43:56;;;;;;;4.20;1.90;;;;;;;;;;5009275;28;20460;-79
2023/06/05 02:46:24;;;;;;;3.65;2.15;;;;;;;;;;5013447;28;20385;-79
2023/06/05 02:48:50;;;;;;;2.83;1.80;;;;;;;;;;5011174;28;20026;-78
2023/06/05 02:51:15;;;;;;;3.30;1.80;;;;;;;;;;5032584;28;20036;-78
2023/06/05 02:53:40;;;;;;;4.93;1.83;;;;;;;;;;5034656;28;20045;-78
2023/06/05 02:56:06;;;;;;;2.63;1.85;;;;;;;;;;5015632;28;20138;-80
2023/06/05 02:58:33;;;;;;;3.13;1.77;;;;;;;;;;5031989;28;21119;-80
2023/06/05 03:01:01;;;;;;;2.05;1.77;;;;;;;;;;5024403;28;20021;-80
2023/06/05 03:03:29;;;;;;;3.35;1.85;;;;;;;;;;5014521;28;20083;-79
2023/06/05 03:05:56;;;;;;;4.55;1.80;;;;;;;;;;5012289;28;20484;-79
2023/06/05 03:08:21;;;;;;;3.28;1.80;;;;;;;;;;5013494;28;20040;-79
2023/06/05 03:10:46;;;;;;;6.75;1.88;;;;;;;;;;5012400;28;20018;-79
2023/06/05 03:13:12;;;;;;;4.03;1.67;;;;;;;;;;5013982;28;20156;-79
2023/06/05 03:15:37;;;;;;;7.10;2.20;;;;;;;;;;5012660;28;20083;-79
2023/06/05 03:18:02;;;;;;;2.35;1.83;;;;;;;;;;5014100;28;20376;-78
2023/06/05 03:20:29;;;;;;;2.75;1.85;;;;;;;;;;5014544;28;20033;-79
2023/06/05 03:22:56;;;;;;;2.83;2.15;;;;;;;;;;5011892;28;20640;-79
2023/06/05 03:25:22;;;;;;;2.75;1.60;;;;;;;;;;5012267;28;20041;-78
2023/06/05 03:27:48;;;;;;;2.60;2.00;;;;;;;;;;5013650;28;20029;-78
2023/06/05 03:30:16;;;;;;;3.17;2.00;;;;;;;;;;5006407;28;20049;-79
2023/06/05 03:32:41;;;;;;;2.28;1.80;;;;;;;;;;5013180;28;20045;-79
2023/06/05 03:35:07;;;;;;;2.03;1.85;;;;;;;;;;5011899;28;20520;-79
2023/06/05 03:37:32;;;;;;;7.20;2.00;;;;;;;;;;5013680;28;20034;-78
2023/06/05 03:39:58;;;;;;;2.92;1.75;;;;;;;;;;5019354;28;20130;-78
2023/06/05 03:42:23;;;;;;;4.15;1.88;;;;;;;;;;5015694;28;20030;-79
2023/06/05 03:44:48;;;;;;;4.88;1.90;;;;;;;;;;5012845;28;20053;-79
2023/06/05 03:47:14;;;;;;;4.45;1.90;;;;;;;;;;5003646;28;20026;-80
2023/06/05 03:49:47;;;;;;;3.72;1.75;;;;;;;;;;5013550;28;20092;-78
2023/06/05 03:52:14;;;;;;;3.92;1.80;;;;;;;;;;5014519;28;20072;-79
2023/06/05 03:54:40;;;;;;;4.03;2.10;;;;;;;;;;5007199;28;20439;-78
2023/06/05 03:57:09;;;;;;;2.63;1.90;;;;;;;;;;5015317;28;20523;-78
2023/06/05 03:59:35;;;;;;;3.20;1.70;;;;;;;;;;5039497;28;20045;-80
2023/06/05 04:02:00;;;;;;;2.15;1.45;;;;;;;;;;5024824;28;20030;-79
2023/06/05 04:04:25;;;;;;;4.07;1.73;;;;;;;;;;5015566;28;20022;-78
2023/06/05 04:06:54;;;;;;;5.22;1.90;;;;;;;;;;5016406;28;20029;-79
2023/06/05 04:09:19;;;;;;;4.65;2.05;;;;;;;;;;5013215;28;20531;-78
2023/06/05 04:11:45;;;;;;;3.80;1.83;;;;;;;;;;5014781;28;20026;-78
2023/06/05 04:14:11;;;;;;;3.28;1.83;;;;;;;;;;5010303;28;20060;-79
2023/06/05 04:16:41;;;;;;;4.13;1.90;;;;;;;;;;5016543;28;20018;-78
2023/06/05 04:19:09;;;;;;;7.10;2.25;;;;;;;;;;4992611;28;20101;-79
2023/06/05 04:21:35;;;;;;;2.78;1.80;;;;;;;;;;5013969;28;20057;-79
2023/06/05 04:24:10;;;;;;;3.20;1.90;;;;;;;;;;5013597;28;20050;-79
2023/06/05 04:26:37;;;;;;;5.75;1.70;;;;;;;;;;5017329;28;20053;-78
2023/06/05 04:29:09;;;;;;;2.47;1.60;;;;;;;;;;5019704;28;20033;-80
2023/06/05 04:31:34;;;;;;;4.10;1.63;;;;;;;;;;5019551;28;20025;-77
2023/06/05 04:34:01;;;;;;;2.42;1.80;;;;;;;;;;5018654;28;20356;-79
2023/06/05 04:36:28;;;;;;;4.15;2.05;;;;;;;;;;5022601;28;20032;-79
2023/06/05 04:38:53;;;;;;;2.63;1.80;;;;;;;;;;5019110;28;20030;-79
2023/06/05 04:41:21;;;;;;;2.85;1.80;;;;;;;;;;5015340;28;20951;-79
2023/06/05 04:43:47;;;;;;;2.80;1.88;;;;;;;;;;5018783;28;20084;-78
2023/06/05 04:46:12;;;;;;;3.17;2.13;;;;;;;;;;5016435;28;20029;-79
2023/06/05 04:48:37;;;;;;;1.73;1.60;;;;;;;;;;5016406;28;20033;-80
2023/06/05 04:51:03;;;;;;;4.10;2.08;;;;;;;;;;5013411;28;20018;-79
2023/06/05 04:53:31;;;;;;;5.75;2.53;;;;;;;;;;5019092;28;20025;-77
2023/06/05 04:56:00;;;;;;;8.80;2.60;;;;;;;;;;5014224;28;20030;-80
2023/06/05 04:58:25;;;;;;;2.40;1.80;;;;;;;;;;5017945;28;20026;-79
2023/06/05 05:00:51;;;;;;;3.78;2.15;;;;;;;;;;5024406;28;20091;-78
2023/06/05 05:03:17;;;;;;;8.73;2.28;;;;;;;;;;5018932;28;20097;-79
2023/06/05 05:05:42;;;;;;;4.55;2.58;;;;;;;;;;5019545;28;20029;-79
2023/06/05 05:08:08;;;;;;;4.50;2.00;;;;;;;;;;5014081;28;20033;-78
2023/06/05 05:10:33;;;;;;;4.20;2.10;;;;;;;;;;5020154;28;20026;-80
2023/06/05 05:13:02;;;;;;;3.15;2.20;;;;;;;;;;5018050;28;20025;-80
2023/06/05 05:15:31;;;;;;;8.88;2.90;;;;;;;;;;5018869;28;20093;-81
2023/06/05 05:17:56;;;;;;;6.95;2.15;;;;;;;;;;5019256;28;20021;-81
2023/06/05 05:20:22;;;;;;;7.18;2.10;;;;;;;;;;5024793;28;20041;-80
2023/06/05 05:22:48;;;;;;;2.67;1.88;;;;;;;;;;5017401;28;20408;-78
2023/06/05 05:25:13;;;;;;;5.03;2.10;;;;;;;;;;5025776;28;20034;-80
2023/06/05 05:27:38;;;;;;;2.08;1.88;;;;;;;;;;5018015;28;20048;-80
2023/06/05 05:30:04;;;;;;;5.32;1.85;;;;;;;;;;5026693;28;20035;-79
2023/06/05 05:32:30;;;;;;;3.72;1.95;;;;;;;;;;5020768;28;20026;-81
2023/06/05 05:34:55;;;;;;;2.60;2.08;;;;;;;;;;5017894;28;20034;-79
2023/06/05 05:37:22;;;;;;;10.45;2.13;;;;;;;;;;5015645;28;20406;-81
2023/06/05 05:39:47;;;;;;;2.28;1.70;;;;;;;;;;5009272;28;20025;-81
2023/06/05 05:42:12;;;;;;;7.28;2.15;;;;;;;;;;5019162;28;20388;-80
2023/06/05 05:44:41;;;;;;;2.83;2.10;;;;;;;;;;5019590;28;20065;-80
2023/06/05 05:47:07;;;;;;;4.25;2.28;;;;;;;;;;5018147;28;20064;-80
2023/06/05 05:49:32;;;;;;;3.00;1.92;;;;;;;;;;5014139;28;20451;-79
2023/06/05 05:51:57;;;;;;;5.95;2.10;;;;;;;;;;5015765;28;20112;-80
2023/06/05 05:54:26;;;;;;;6.78;2.15;;;;;;;;;;5018510;28;20021;-81
2023/06/05 05:56:52;;;;;;;4.15;2.25;;;;;;;;;;5019432;28;20109;-80
2023/06/05 05:59:18;;;;;;;3.65;2.25;;;;;;;;;;5014152;28;20057;-80
2023/06/05 06:01:43;;;;;;;4.10;2.50;;;;;;;;;;5016170;28;20101;-80
2023/06/05 06:04:09;;;;;;;4.82;2.10;;;;;;;;;;5013079;28;20034;-80
2023/06/05 06:06:34;;;;;;;16.00;2.65;;;;;;;;;;5025243;28;20095;-80
2023/06/05 06:09:00;;;;;;;3.20;2.25;;;;;;;;;;5019428;28;20384;-80
2023/06/05 06:11:26;;;;;;;7.28;2.28;;;;;;;;;;5025395;28;20156;-79
2023/06/05 06:13:52;;;;;;;9.23;2.45;;;;;;;;;;5026382;28;20055;-79
2023/06/05 06:16:17;;;;;;;10.77;2.67;;;;;;;;;;5019106;28;20033;-80
2023/06/05 06:18:43;;;;;;;3.67;2.20;;;;;;;;;;5016509;28;20060;-80
2023/06/05 06:21:08;;;;;;;3.60;2.05;;;;;;;;;;5017870;28;20037;-80
2023/06/05 06:23:33;;;;;;;2.63;2.00;;;;;;;;;;5016412;28;20387;-80
2023/06/05 06:25:59;;;;;;;6.75;2.30;;;;;;;;;;5016955;28;20029;-80
2023/06/05 06:28:25;;;;;;;4.63;1.95;;;;;;;;;;5024000;28;20026;-79
2023/06/05 06:30:50;;;;;;;5.25;2.30;;;;;;;;;;5018521;28;20084;-80
2023/06/05 06:33:16;;;;;;;4.75;2.20;;;;;;;;;;5017242;28;20064;-80
2023/06/05 06:35:41;;;;;;;5.43;2.47;;;;;;;;;;5016315;28;20052;-79
2023/06/05 06:38:06;;;;;;;3.22;1.98;;;;;;;;;;5016457;28;20073;-81
2023/06/05 06:40:32;;;;;;;4.68;2.13;;;;;;;;;;5017780;28;20038;-81
2023/06/05 06:42:57;;;;;;;5.68;2.50;;;;;;;;;;5018311;28;20057;-81
2023/06/05 06:45:22;;;;;;;3.30;2.33;;;;;;;;;;5022434;28;20045;-81
2023/06/05 06:47:48;;;;;;;6.72;2.10;;;;;;;;;;5018219;28;20057;-80
2023/06/05 06:50:14;;;;;;;4.43;2.22;;;;;;;;;;5017341;28;20109;-80
2023/06/05 06:52:40;;;;;;;4.18;2.00;;;;;;;;;;5010361;28;20413;-81
2023/06/05 06:55:06;;;;;;;6.13;2.40;;;;;;;;;;5018033;28;20037;-80
2023/06/05 06:57:31;;;;;;;5.80;2.13;;;;;;;;;;5016968;28;20030;-81
2023/06/05 06:59:57;;;;;;;3.08;2.00;;;;;;;;;;5027061;28;20026;-80
2023/06/05 07:02:24;;;;;;;5.03;2.05;;;;;;;;;;5018112;28;20058;-80
2023/06/05 07:04:49;;;;;;;4.25;2.00;;;;;;;;;;5020741;28;20531;-79
2023/06/05 07:07:16;;;;;;;2.40;1.90;;;;;;;;;;5021867;28;20062;-81
2023/06/05 07:09:43;;;;;;;4.78;2.00;;;;;;;;;;5017318;28;20037;-79
2023/06/05 07:12:14;;;;;;;2.70;1.85;;;;;;;;;;5011744;28;20030;-79
2023/06/05 07:14:39;;;;;;;20.00;4.28;;;;;;;;;;5003548;28;20034;-78
2023/06/05 07:17:05;;;;;;;3.03;1.88;;;;;;;;;;5010189;28;20063;-78
2023/06/05 07:19:32;;;;;;;3.80;2.10;;;;;;;;;;5012361;28;20033;-79
2023/06/05 07:21:59;;;;;;;5.57;2.25;;;;;;;;;;5014936;28;20052;-77
2023/06/05 07:24:26;;;;;;;3.90;2.10;;;;;;;;;;5017803;28;20036;-78
2023/06/05 07:26:56;;;;;;;3.67;1.75;;;;;;;;;;5021016;28;20022;-77
2023/06/05 07:29:25;;;;;;;3.97;2.10;;;;;;;;;;5031873;28;20029;-80
2023/06/05 07:31:52;;;;;;;6.50;2.13;;;;;;;;;;5016202;28;20017;-79
2023/06/05 07:34:18;;;;;;;4.40;2.13;;;;;;;;;;5009039;28;20037;-80
2023/06/05 07:36:45;;;;;;;6.57;2.20;;;;;;;;;;5019081;28;20116;-80
2023/06/05 07:39:11;;;;;;;7.70;2.22;;;;;;;;;;5022925;28;20033;-79
2023/06/05 07:41:37;;;;;;;5.22;2.22;;;;;;;;;;5006354;28;20052;-80
2023/06/05 07:44:02;;;;;;;2.55;1.85;;;;;;;;;;5022060;28;20105;-80
2023/06/05 07:46:28;;;;;;;8.50;2.47;;;;;;;;;;5021199;28;20036;-80
2023/06/05 07:48:53;;;;;;;4.18;2.13;;;;;;;;;;5019159;28;20032;-78
2023/06/05 07:51:18;;;;;;;3.45;2.13;;;;;;;;;;5015829;28;20486;-80
2023/06/05 07:53:46;;;;;;;3.60;2.00;;;;;;;;;;5016866;28;20547;-79
2023/06/05 07:56:12;;;;;;;3.05;2.33;;;;;;;;;;5017041;28;20038;-80
2023/06/05 07:58:39;;;;;;;3.28;2.30;;;;;;;;;;5019217;28;20089;-80
2023/06/05 08:01:06;;;;;;;4.97;2.38;;;;;;;;;;5012204;28;20058;-80
2023/06/05 08:03:32;;;;;;;6.38;2.50;;;;;;;;;;5007563;28;20033;-80
2023/06/05 08:05:58;;;;;;;10.98;2.47;;;;;;;;;;5017122;28;20026;-79
2023/06/05 08:08:23;;;;;;;6.75;2.50;;;;;;;;;;5015545;28;20053;-79
2023/06/05 08:10:49;;;;;;;5.93;2.38;;;;;;;;;;5016248;28;20029;-79
2023/06/05 08:13:14;;;;;;;8.93;2.58;;;;;;;;;;5021948;28;20060;-80
2023/06/05 08:15:40;;;;;;;5.07;2.45;;;;;;;;;;5019639;28;20030;-79
2023/06/05 08:18:05;;;;;;;2.50;2.30;;;;;;;;;;5017291;28;20032;-80
2023/06/05 08:20:30;;;;;;;7.40;2.70;;;;;;;;;;5015748;28;20030;-80
2023/06/05 08:22:57;;;;;;;8.75;2.80;;;;;;;;;;5015603;28;20029;-80
2023/06/05 08:25:26;;;;;;;4.30;2.60;;;;;;;;;;5019245;28;20032;-80
2023/06/05 08:27:52;;;;;;;10.25;3.00;;;;;;;;;;5028925;28;20022;-80
2023/06/05 08:30:18;;;;;;;5.55;2.88;;;;;;;;;;5018018;28;20034;-80
2023/06/05 08:32:44;;;;;;;4.63;2.75;;;;;;;;;;5013718;28;20030;-78
2023/06/05 08:35:12;;;;;;;6.95;3.00;;;;;;;;;;5018176;28;20030;-80
2023/06/05 08:37:39;;;;;;;5.80;2.90;;;;;;;;;;5015531;28;20048;-79
2023/06/05 08:40:12;;;;;;;4.00;2.38;;;;;;;;;;5012074;28;20022;-79
2023/06/05 08:42:38;;;;;;;5.22;2.58;;;;;;;;;;5020944;28;20041;-80
2023/06/05 08:45:07;;;;;;;3.85;2.40;;;;;;;;;;5020181;28;20022;-79
2023/06/05 08:47:36;;;;;;;9.05;2.63;;;;;;;;;;5017574;28;20116;-79
2023/06/05 08:50:04;;;;;;;5.45;2.67;;;;;;;;;;5019366;28;20021;-80
2023/06/05 08:52:33;;;;;;;9.13;3.00;;;;;;;;;;5015492;28;20141;-82
2023/06/05 08:54:58;;;;;;;4.97;2.60;;;;;;;;;;5026931;28;20021;-81
2023/06/05 08:57:24;;;;;;;6.38;3.00;;;;;;;;;;5032613;28;20412;-80
2023/06/05 08:59:49;;;;;;;6.22;2.90;;;;;;;;;;5033331;28;20450;-78
2023/06/05 09:02:15;;;;;;;9.95;3.00;;;;;;;;;;5034294;28;20586;-79
2023/06/05 09:04:40;;;;;;;4.75;2.88;;;;;;;;;;5015444;28;20337;-81
2023/06/05 09:07:07;;;;;;;4.78;2.83;;;;;;;;;;5007440;28;20096;-81
2023/06/05 09:09:33;;;;;;;8.27;2.92;;;;;;;;;;5014951;28;20026;-80
2023/06/05 09:12:03;;;;;;;6.10;3.10;;;;;;;;;;5013954;28;20036;-80
2023/06/05 09:14:30;;;;;;;8.82;2.88;;;;;;;;;;5015594;28;20056;-79
2023/06/05 09:16:56;;;;;;;5.95;2.97;;;;;;;;;;5019542;28;20033;-78
2023/06/05 09:19:26;;;;;;;6.85;4.25;;;;;;;;;;5012031;28;20171;-80
2023/06/05 09:21:54;;;;;;;11.15;3.33;;;;;;;;;;5018701;28;20029;-80
2023/06/05 09:24:21;;;;;;;3.08;2.50;;;;;;;;;;5024915;28;20049;-80
2023/06/05 09:26:58;;;;;;;7.03;2.72;;;;;;;;;;5019893;28;20384;-81
2023/06/05 09:29:36;;;;;;;4.90;2.60;;;;;;;;;;5019856;28;20051;-79
2023/06/05 09:32:06;;;;;;;7.80;2.63;;;;;;;;;;5019964;28;20026;-80
2023/06/05 09:34:36;;;;;;;6.68;3.20;;;;;;;;;;5026902;28;20021;-80
2023/06/05 09:37:03;;;;;;;5.00;3.22;;;;;;;;;;5023331;28;20021;-80
2023/06/05 09:39:30;;;;;;;3.55;2.60;;;;;;;;;;5019182;28;20030;-81
2023/06/05 09:41:58;;;;;;;3.78;2.50;;;;;;;;;;5019555;28;20445;-81
2023/06/05 09:44:24;;;;;;;11.55;3.00;;;;;;;;;;5011636;28;20025;-81
2023/06/05 09:46:54;;;;;;;7.55;2.78;;;;;;;;;;5019813;28;20022;-80
2023/06/05 09:49:20;;;;;;;6.72;3.00;;;;;;;;;;5019531;28;20014;-80
2023/06/05 09:51:47;;;;;;;4.70;3.00;;;;;;;;;;5020004;28;20381;-80
2023/06/05 09:54:13;;;;;;;8.30;2.67;;;;;;;;;;5019148;28;20032;-79
2023/06/05 09:56:46;;;;;;;6.15;2.92;;;;;;;;;;5018187;28;20014;-78
2023/06/05 09:59:13;;;;;;;7.03;3.22;;;;;;;;;;5019644;28;20033;-79
2023/06/05 10:01:40;;;;;;;9.30;2.53;;;;;;;;;;5019699;28;20033;-80
2023/06/05 10:04:08;;;;;;;7.00;2.70;;;;;;;;;;5019094;28;20399;-79
2023/06/05 10:06:34;;;;;;;4.68;3.25;;;;;;;;;;5020073;28;20097;-82
2023/06/05 10:09:00;;;;;;;3.72;2.42;;;;;;;;;;5034060;28;20051;-79
2023/06/05 10:11:26;;;;;;;3.70;2.75;;;;;;;;;;5026341;28;20072;-78
2023/06/05 10:13:52;;;;;;;3.90;2.47;;;;;;;;;;5016613;28;20032;-79
2023/06/05 10:16:18;;;;;;;9.07;2.85;;;;;;;;;;5020572;28;20018;-78
2023/06/05 10:18:48;;;;;;;8.65;2.80;;;;;;;;;;5029910;22;20022;-80
2023/06/05 10:21:18;;;;;;;4.18;2.92;;;;;;;;;;5054300;28;20040;-80
2023/06/05 10:24:15;;;;;;;5.47;2.67;;;;;;;;;;5068785;28;20543;-81
2023/06/05 10:27:12;;;;;;;3.38;2.50;;;;;;;;;;5068105;28;20021;-79
2023/06/05 10:30:18;;;;;;;3.30;2.25;;;;;;;;;;5063335;28;20080;-81
2023/06/05 10:32:59;;;;;;;4.72;2.20;;;;;;;;;;5055414;28;20165;-83
2023/06/05 10:35:41;;;;;;;3.07;2.50;;;;;;;;;;5059847;28;20028;-80
2023/06/05 10:38:17;;;;;;;6.53;2.53;;;;;;;;;;5058769;28;20429;-81
2023/06/05 10:40:44;;;;;;;6.53;2.60;;;;;;;;;;5063378;28;20021;-80
2023/06/05 10:43:43;;;;;;;2.58;1.98;;;;;;;;;;5058056;28;20081;-83
2023/06/05 10:46:32;;;;;;;5.43;2.40;;;;;;;;;;5052631;28;20033;-79
2023/06/05 10:49:11;;;;;;;4.10;2.20;;;;;;;;;;5064569;28;20387;-80
2023/06/05 10:51:39;;;;;;;7.25;2.65;;;;;;;;;;5057453;28;20020;-80
2023/06/05 10:54:15;;;;;;;4.20;2.45;;;;;;;;;;5071874;28;20036;-81
2023/06/05 10:57:01;;;;;;;3.08;2.17;;;;;;;;;;5071288;28;20378;-81
2023/06/05 10:59:31;;;;;;;4.10;2.33;;;;;;;;;;5066258;28;20099;-82
2023/06/05 11:02:17;;;;;;;5.07;2.33;;;;;;;;;;5069041;28;20025;-80
2023/06/05 11:04:48;;;;;;;3.45;2.13;;;;;;;;;;5044014;28;20426;-79
2023/06/05 11:07:24;;;;;;;;;;;;;;;;;;5062598;28;20021;-81
2023/06/05 11:10:01;;;;;;;2.97;1.98;;;;;;;;;;5057713;28;20007;-81
2023/06/05 11:12:42;;;;;;;4.13;2.55;;;;;;;;;;5058485;28;20397;-80
2023/06/05 11:15:14;;;;;;;4.28;2.05;;;;;;;;;;5057203;28;20044;-83
2023/06/05 11:17:44;;;;;;;3.97;2.55;;;;;;;;;;5054412;28;20082;-80
2023/06/05 11:20:28;;;;;;;3.03;2.00;;;;;;;;;;5056210;28;20050;-83
2023/06/05 11:22:53;;;;;;;2.88;2.00;;;;;;;;;;5068209;28;20017;-83
2023/06/05 11:25:21;;;;;;;3.50;2.22;;;;;;;;;;5054503;28;20100;-83
2023/06/05 11:27:50;;;;;;;3.22;2.13;;;;;;;;;;5066900;28;20048;-82
2023/06/05 11:30:17;;;;;;;5.30;2.08;;;;;;;;;;5055922;28;20220;-82
2023/06/05 11:32:43;;;;;;;3.97;2.30;;;;;;;;;;5057882;28;20009;-82
2023/06/05 11:35:10;;;;;;;4.93;2.72;;;;;;;;;;5051295;28;20035;-82
2023/06/05 11:37:36;;;;;;;5.82;2.22;;;;;;;;;;5054526;28;20500;-82
2023/06/05 11:40:11;;;;;;;4.03;2.22;;;;;;;;;;5065418;28;20025;-82
2023/06/05 11:42:39;;;;;;;3.40;2.20;;;;;;;;;;5058553;28;20471;-83
2023/06/05 11:45:12;;;;;;;4.20;2.13;;;;;;;;;;5056915;28;20064;-80
2023/06/05 11:47:38;;;;;;;4.40;2.58;;;;;;;;;;5055276;28;20155;-81
2023/06/05 11:50:10;;;;;;;8.10;2.92;;;;;;;;;;5061626;28;20067;-82
2023/06/05 11:52:36;;;;;;;4.07;2.45;;;;;;;;;;5057446;28;20080;-82
2023/06/05 11:55:14;;;;;;;3.63;2.55;;;;;;;;;;5040104;28;20696;-81
2023/06/05 11:57:41;;;;;;;2.92;2.10;;;;;;;;;;5057527;28;20067;-81
2023/06/05 12:00:09;;;;;;;6.95;2.20;;;;;;;;;;5070113;28;20479;-82
2023/06/05 12:02:36;;;;;;;6.60;2.17;;;;;;;;;;5061562;28;20048;-82
2023/06/05 12:05:01;;;;;;;4.20;2.30;;;;;;;;;;5068368;28;20544;-82
2023/06/05 12:07:31;;;;;;;4.13;2.10;;;;;;;;;;5060921;28;20451;-82
2023/06/05 12:09:58;;;;;;;5.03;2.17;;;;;;;;;;5055482;28;20025;-82
2023/06/05 12:12:23;;;;;;;5.55;2.65;;;;;;;;;;5056830;28;20496;-82
2023/06/05 12:14:49;;;;;;;4.40;2.63;;;;;;;;;;5072378;28;20012;-79
2023/06/05 12:17:14;;;;;;;7.93;2.83;;;;;;;;;;5070249;28;20037;-80
2023/06/05 12:19:40;;;;;;;3.65;2.15;;;;;;;;;;5072188;28;20024;-79
2023/06/05 12:22:08;;;;;;;5.18;2.20;;;;;;;;;;5060170;28;20020;-82
2023/06/05 12:24:34;;;;;;;2.88;2.42;;;;;;;;;;5061153;28;20028;-82
2023/06/05 12:27:01;;;;;;;3.38;2.45;;;;;;;;;;5066748;28;20024;-79
2023/06/05 12:29:29;;;;;;;5.43;2.40;;;;;;;;;;5057710;28;20021;-82
2023/06/05 12:31:56;;;;;;;4.93;2.67;;;;;;;;;;5057297;28;20028;-82
2023/06/05 12:34:41;;;;;;;4.47;2.53;;;;;;;;;;5058235;28;20120;-82
2023/06/05 12:37:07;;;;;;;5.30;2.45;;;;;;;;;;5057443;28;20025;-82
2023/06/05 12:39:34;;;;;;;8.85;2.22;;;;;;;;;;5060652;28;20494;-82
2023/06/05 12:41:59;;;;;;;5.00;2.63;;;;;;;;;;5059757;28;20017;-80
2023/06/05 12:44:25;;;;;;;4.18;2.45;;;;;;;;;;5060913;28;20020;-81
2023/06/05 12:46:50;;;;;;;4.72;2.20;;;;;;;;;;5058519;28;20021;-81
2023/06/05 12:49:16;;;;;;;6.32;2.53;;;;;;;;;;5066135;28;20112;-82
2023/06/05 12:51:43;;;;;;;4.22;2.30;;;;;;;;;;5059912;28;20021;-82
2023/06/05 12:54:08;;;;;;;3.03;2.33;;;;;;;;;;5058013;28;20017;-79
2023/06/05 12:56:35;;;;;;;3.88;2.40;;;;;;;;;;5063015;28;20021;-79
2023/06/05 12:59:01;;;;;;;6.13;2.58;;;;;;;;;;5064372;28;20017;-79
2023/06/05 13:01:28;;;;;;;3.83;2.38;;;;;;;;;;5059375;28;20071;-80
2023/06/05 13:03:54;;;;;;;3.42;2.58;;;;;;;;;;5054830;28;20053;-80
2023/06/05 13:06:19;;;;;;;4.45;2.10;;;;;;;;;;5061032;28;20044;-81
2023/06/05 13:08:46;;;;;;;3.03;2.30;;;;;;;;;;5050314;28;20033;-78
2023/06/05 13:11:12;;;;;;;3.80;2.55;;;;;;;;;;5059548;28;20042;-82
2023/06/05 13:13:37;;;;;;;5.05;2.78;;;;;;;;;;5053964;28;20032;-75
2023/06/05 13:16:06;;;;;;;5.05;2.70;;;;;;;;;;5048929;28;20025;-78
2023/06/05 13:18:39;;;;;;;5.78;2.63;;;;;;;;;;5051668;28;20149;-84
2023/06/05 13:21:05;;;;;;;6.20;2.58;;;;;;;;;;5037443;28;20033;-80
2023/06/05 13:23:31;;;;;;;6.85;2.45;;;;;;;;;;5056311;28;20047;-86
2023/06/05 13:25:57;;;;;;;3.58;2.50;;;;;;;;;;5049469;28;20029;-80
2023/06/05 13:28:22;;;;;;;5.63;2.38;;;;;;;;;;5059118;28;20044;-86
2023/06/05 13:30:48;;;;;;;6.75;2.40;;;;;;;;;;5061231;28;20021;-88
2023/06/05 13:33:13;;;;;;;5.97;2.10;;;;;;;;;;5064592;28;21896;-88
2023/06/05 13:35:39;;;;;;;6.53;2.42;;;;;;;;;;5055892;28;20474;-85
2023/06/05 13:38:04;;;;;;;5.13;2.60;;;;;;;;;;5058661;28;20025;-84
2023/06/05 13:40:32;;;;;;;5.65;2.35;;;;;;;;;;5058427;28;20021;-82
2023/06/05 13:42:58;;;;;;;3.90;2.35;;;;;;;;;;5051417;28;20602;-84
2023/06/05 13:45:23;;;;;;;6.80;2.78;;;;;;;;;;5051625;28;20032;-86
2023/06/05 13:47:49;;;;;;;4.35;2.60;;;;;;;;;;5055991;28;20025;-82
2023/06/05 13:50:14;;;;;;;6.30;2.13;;;;;;;;;;5053047;28;20032;-84
2023/06/05 13:52:40;;;;;;;4.20;2.58;;;;;;;;;;5056767;28;20100;-85
2023/06/05 13:55:06;;;;;;;5.88;2.35;;;;;;;;;;5058399;28;22135;-84
2023/06/05 13:57:31;;;;;;;7.43;2.20;;;;;;;;;;5060910;28;20028;-85
2023/06/05 13:59:57;;;;;;;4.32;2.17;;;;;;;;;;5059524;28;20025;-86
2023/06/05 14:02:22;;;;;;;4.38;2.70;;;;;;;;;;5063248;28;20024;-86
2023/06/05 14:04:47;;;;;;;5.20;2.20;;;;;;;;;;5056945;28;20028;-83
2023/06/05 14:07:13;;;;;;;5.80;2.58;;;;;;;;;;5053239;28;20021;-85
2023/06/05 14:09:38;;;;;;;5.63;2.70;;;;;;;;;;5066645;28;20067;-80
2023/06/05 14:12:04;;;;;;;6.55;2.30;;;;;;;;;;5061937;28;20017;-85
2023/06/05 14:14:30;;;;;;;7.80;2.58;;;;;;;;;;5060870;28;20021;-84
2023/06/05 14:16:56;;;;;;;3.45;2.03;;;;;;;;;;5058743;28;20078;-85
2023/06/05 14:19:21;;;;;;;3.25;2.28;;;;;;;;;;5067748;28;20038;-85
2023/06/05 14:21:47;;;;;;;4.28;2.60;;;;;;;;;;5066096;28;20025;-82
2023/06/05 14:24:13;;;;;;;4.22;2.40;;;;;;;;;;5064722;28;20059;-82
2023/06/05 14:26:39;;;;;;;4.07;2.33;;;;;;;;;;5059759;28;20056;-84
2023/06/05 14:29:04;;;;;;;3.80;2.35;;;;;;;;;;5058723;28;20021;-83
2023/06/05 14:31:30;;;;;;;4.40;1.95;;;;;;;;;;5058176;28;20032;-84
2023/06/05 14:33:56;;;;;;;2.72;2.20;;;;;;;;;;5068420;28;20021;-82
2023/06/05 14:36:21;;;;;;;3.10;2.28;;;;;;;;;;5058641;28;20025;-82
2023/06/05 14:38:46;;;;;;;3.67;2.20;;;;;;;;;;5054309;28;20032;-81
2023/06/05 14:41:12;;;;;;;2.90;2.08;;;;;;;;;;5065652;28;20028;-82
2023/06/05 14:43:37;;;;;;;5.03;2.28;;;;;;;;;;5064917;28;20081;-83
2023/06/05 14:46:03;;;;;;;2.88;2.10;;;;;;;;;;5058502;28;20354;-78